Time;durP1;ratioP1;P1;durP2;ratioP2;P2;SDS_P1;SDS_P2;PMS_P1;PMS_P2;Temp;Humidity;BMP_temperature;BMP_pressure;BME280_temperature;BME280_humidity;BME280_pressure;Samples;Min_cycle;Max_cycle;Signal;HPM_P1;HPM_P2
2023/03/28 02:11:41;;;;;;;;;;;2.60;99.90;;;;;;5061559;28;19923;-69
2023/03/28 02:14:21;;;;;;;;;;;2.60;99.90;;;;;;5034357;28;19917;-70
2023/03/28 02:16:48;;;;;;;;;;;2.50;99.90;;;;;;5035899;28;19916;-69
2023/03/28 02:19:33;;;;;;;;;;;2.50;99.90;;;;;;5035957;28;19917;-70
2023/03/28 02:22:21;;;;;;;;;;;2.40;99.90;;;;;;5035844;28;19920;-70
2023/03/28 02:24:59;;;;;;;;;;;2.50;99.90;;;;;;5035387;28;20378;-71
2023/03/28 02:27:51;;;;;;;;;;;2.50;99.90;;;;;;5035550;28;19944;-71
2023/03/28 02:30:40;;;;;;;;;;;2.50;99.90;;;;;;5025052;28;20008;-70
2023/03/28 02:33:08;;;;;;;;;;;2.50;99.90;;;;;;5033974;28;19911;-71
2023/03/28 02:35:45;;;;;;;;;;;2.50;99.90;;;;;;5034144;28;19913;-71
2023/03/28 02:38:21;;;;;;;;;;;2.40;99.90;;;;;;5035196;28;19944;-71
2023/03/28 02:41:01;;;;;;;;;;;2.40;99.90;;;;;;5033952;28;20444;-71
2023/03/28 02:43:40;;;;;;;;;;;2.40;99.90;;;;;;5035599;28;20003;-71
2023/03/28 02:46:06;;;;;;;;;;;2.40;99.90;;;;;;5033821;28;20313;-71
2023/03/28 02:48:47;;;;;;;;;;;2.30;99.90;;;;;;5033861;28;19913;-71
2023/03/28 02:51:24;;;;;;;;;;;2.30;99.90;;;;;;5035141;28;20434;-72
2023/03/28 02:53:55;;;;;;;;;;;2.30;99.90;;;;;;5034874;28;19909;-72
2023/03/28 02:56:30;;;;;;;;;;;2.30;99.90;;;;;;5035159;28;19997;-72
2023/03/28 02:59:13;;;;;;;;;;;2.20;99.90;;;;;;5033762;28;19955;-72
2023/03/28 03:01:40;;;;;;;;;;;2.30;99.90;;;;;;5034872;28;19913;-72
2023/03/28 03:04:06;;;;;;;;;;;2.30;99.90;;;;;;5034947;28;19912;-71
2023/03/28 03:06:34;;;;;;;;;;;2.30;99.90;;;;;;5029927;28;19985;-72
2023/03/28 03:09:01;;;;;;;;;;;2.20;99.90;;;;;;5013608;28;19952;-72
2023/03/28 03:11:27;;;;;;;;;;;2.10;99.90;;;;;;5013866;28;19916;-72
2023/03/28 03:13:53;;;;;;;;;;;2.10;99.90;;;;;;5048363;28;20352;-72
2023/03/28 03:16:19;;;;;;;;;;;2.10;99.90;;;;;;5033422;28;19909;-72
2023/03/28 03:18:45;;;;;;;;;;;2.20;99.90;;;;;;5033599;28;19981;-72
2023/03/28 03:21:11;;;;;;;;;;;2.40;99.90;;;;;;5033266;28;19948;-72
2023/03/28 03:23:40;;;;;;;;;;;2.40;99.90;;;;;;5033511;28;19912;-72
2023/03/28 03:26:05;;;;;;;;;;;2.30;99.90;;;;;;5033516;28;19927;-72
2023/03/28 03:28:50;;;;;;;;;;;2.20;99.90;;;;;;5033209;28;19917;-72
2023/03/28 03:31:18;;;;;;;;;;;2.10;99.90;;;;;;5033463;28;19932;-72
2023/03/28 03:34:25;;;;;;;;;;;2.10;99.90;;;;;;4960577;28;19910;-72
2023/03/28 03:36:55;;;;;;;;;;;2.10;99.90;;;;;;4973258;28;20518;-72
2023/03/28 03:39:21;;;;;;;;;;;2.00;99.90;;;;;;4973439;28;19980;-72
2023/03/28 03:41:47;;;;;;;;;;;2.00;99.90;;;;;;4973521;28;19910;-72
2023/03/28 03:44:13;;;;;;;;;;;2.10;99.90;;;;;;4956993;28;19910;-72
2023/03/28 03:46:38;;;;;;;;;;;2.20;99.90;;;;;;4973255;28;20410;-72
2023/03/28 03:49:05;;;;;;;;;;;2.10;99.90;;;;;;4973176;28;20022;-72
2023/03/28 03:51:33;;;;;;;;;;;2.10;99.90;;;;;;4973173;28;19906;-72
2023/03/28 03:54:00;;;;;;;;;;;2.10;99.90;;;;;;4957243;28;19918;-72
2023/03/28 03:56:38;;;;;;;;;;;2.00;99.90;;;;;;4973046;28;19921;-72
2023/03/28 03:59:04;;;;;;;;;;;2.00;99.90;;;;;;4973294;28;19916;-72
2023/03/28 04:01:32;;;;;;;;;;;2.00;99.90;;;;;;4972882;28;19917;-72
2023/03/28 04:04:19;;;;;;;;;;;2.10;99.90;;;;;;4982676;28;19915;-72
2023/03/28 04:07:03;;;;;;;;;;;2.00;99.90;;;;;;5013255;28;19917;-72
2023/03/28 04:09:30;;;;;;;;;;;1.90;99.90;;;;;;5029629;28;19917;-72
2023/03/28 04:12:00;;;;;;;;;;;1.90;99.90;;;;;;5018204;28;19913;-72
2023/03/28 04:14:26;;;;;;;;;;;1.80;99.90;;;;;;5036178;28;19932;-72
2023/03/28 04:17:12;;;;;;;;;;;1.80;99.90;;;;;;5054172;28;19915;-72
2023/03/28 04:19:38;;;;;;;;;;;1.60;99.90;;;;;;5056900;28;20035;-72
2023/03/28 04:22:06;;;;;;;;;;;1.50;99.90;;;;;;5057658;28;19916;-72
2023/03/28 04:24:36;;;;;;;;;;;1.50;99.90;;;;;;5056505;28;19905;-72
2023/03/28 04:27:19;;;;;;;;;;;1.50;99.90;;;;;;5039588;28;19931;-72
2023/03/28 04:29:46;;;;;;;;;;;1.40;99.90;;;;;;5039726;28;19951;-72
2023/03/28 04:32:40;;;;;;;;;;;1.40;99.90;;;;;;5035369;28;19916;-72
2023/03/28 04:35:08;;;;;;;;;;;1.30;99.90;;;;;;5056449;28;19913;-72
2023/03/28 04:37:36;;;;;;;;;;;1.30;99.90;;;;;;5056160;28;20261;-72
2023/03/28 04:40:09;;;;;;;;;;;1.20;99.90;;;;;;5039519;28;19999;-72
2023/03/28 04:42:44;;;;;;;;;;;1.20;99.90;;;;;;5039465;28;19912;-72
2023/03/28 04:45:17;;;;;;;;;;;1.10;99.90;;;;;;5056165;28;19909;-72
2023/03/28 04:47:43;;;;;;;;;;;1.10;99.90;;;;;;5055918;28;19927;-72
2023/03/28 04:50:17;;;;;;;;;;;1.10;99.90;;;;;;5039312;28;20015;-72
2023/03/28 04:52:43;;;;;;;;;;;1.10;99.90;;;;;;5055892;28;19920;-73
2023/03/28 04:55:09;;;;;;;;;;;1.10;99.90;;;;;;5039074;28;19913;-73
2023/03/28 04:57:37;;;;;;;;;;;1.30;99.90;;;;;;5039237;28;19923;-73
2023/03/28 05:00:08;;;;;;;;;;;1.40;99.90;;;;;;5055797;28;19909;-72
2023/03/28 05:02:58;;;;;;;;;;;1.50;99.90;;;;;;5057191;28;19916;-73
2023/03/28 05:05:26;;;;;;;;;;;1.60;99.90;;;;;;5064008;28;19908;-72
2023/03/28 05:07:52;;;;;;;;;;;1.60;99.90;;;;;;5058494;28;19998;-72
2023/03/28 05:10:20;;;;;;;;;;;1.60;99.90;;;;;;5058736;28;20373;-72
2023/03/28 05:12:47;;;;;;;;;;;1.60;99.90;;;;;;5058349;28;19919;-72
2023/03/28 05:15:13;;;;;;;;;;;1.50;99.90;;;;;;5076756;28;19908;-72
2023/03/28 05:17:49;;;;;;;;;;;1.70;99.90;;;;;;5058680;28;19911;-72
2023/03/28 05:20:26;;;;;;;;;;;1.80;99.90;;;;;;5058543;28;20013;-72
2023/03/28 05:22:54;;;;;;;;;;;2.10;99.90;;;;;;5058709;28;19912;-72
2023/03/28 05:25:20;;;;;;;;;;;2.30;99.90;;;;;;5076484;28;20265;-72
2023/03/28 05:27:48;;;;;;;;;;;2.40;99.90;;;;;;5053543;28;20152;-72
2023/03/28 05:30:15;;;;;;;;;;;2.50;99.90;;;;;;5070681;28;19921;-71
2023/03/28 05:32:42;;;;;;;;;;;2.60;99.90;;;;;;5056797;28;19916;-71
2023/03/28 05:35:11;;;;;;;;;;;2.70;99.90;;;;;;5056290;28;19921;-71
2023/03/28 05:37:38;;;;;;;;;;;2.90;99.90;;;;;;5052675;28;19912;-71
2023/03/28 05:40:05;;;;;;;;;;;3.00;99.90;;;;;;5053596;28;19908;-71
2023/03/28 05:42:33;;;;;;;;;;;3.20;99.90;;;;;;5038167;28;20282;-71
2023/03/28 05:45:01;;;;;;;;;;;3.30;99.90;;;;;;5037744;28;19909;-71
2023/03/28 05:47:49;;;;;;;;;;;3.70;99.90;;;;;;5038231;28;19909;-71
2023/03/28 05:50:15;;;;;;;;;;;4.00;99.90;;;;;;5037908;28;19920;-71
2023/03/28 05:52:41;;;;;;;;;;;4.30;99.90;;;;;;5037714;28;19909;-71
2023/03/28 05:55:07;;;;;;;;;;;4.40;99.90;;;;;;5054487;28;19909;-70
2023/03/28 05:57:33;;;;;;;;;;;4.60;99.90;;;;;;5037591;28;20013;-71
2023/03/28 06:00:02;;;;;;;;;;;4.80;99.90;;;;;;5054295;28;19912;-71
2023/03/28 06:02:33;;;;;;;;;;;5.00;99.90;;;;;;5055847;28;19987;-71
2023/03/28 06:04:59;;;;;;;;;;;4.90;99.90;;;;;;5062339;28;19920;-71
2023/03/28 06:07:25;;;;;;;;;;;5.10;99.90;;;;;;5057411;28;19908;-71
2023/03/28 06:09:51;;;;;;;;;;;5.30;99.90;;;;;;5057386;28;19913;-71
2023/03/28 06:12:18;;;;;;;;;;;5.50;99.90;;;;;;5075405;28;19916;-71
2023/03/28 06:14:49;;;;;;;;;;;5.80;99.90;;;;;;5057442;28;19951;-70
2023/03/28 06:17:24;;;;;;;;;;;6.00;99.90;;;;;;5057471;28;20461;-70
2023/03/28 06:19:54;;;;;;;;;;;6.30;99.90;;;;;;5057324;28;20306;-70
2023/03/28 06:22:21;;;;;;;;;;;6.40;99.90;;;;;;5057066;28;19916;-70
2023/03/28 06:24:53;;;;;;;;;;;6.80;99.90;;;;;;5057401;28;19909;-70
2023/03/28 06:27:25;;;;;;;;;;;7.20;99.90;;;;;;5057454;28;20420;-70
2023/03/28 06:29:51;;;;;;;;;;;7.50;99.90;;;;;;5057302;28;20003;-70
2023/03/28 06:32:18;;;;;;;;;;;7.70;99.90;;;;;;5057494;28;20285;-70
2023/03/28 06:34:45;;;;;;;;;;;8.10;99.90;;;;;;5056787;28;19934;-70
2023/03/28 06:37:12;;;;;;;;;;;8.40;99.90;;;;;;5053326;28;19909;-70
2023/03/28 06:39:49;;;;;;;;;;;8.50;99.90;;;;;;5037370;28;19917;-70
2023/03/28 06:42:15;;;;;;;;;;;8.70;99.90;;;;;;5036627;28;20396;-70
2023/03/28 06:44:51;;;;;;;;;;;9.20;99.90;;;;;;5040889;28;19908;-70
2023/03/28 06:47:28;;;;;;;;;;;9.00;99.90;;;;;;5050940;28;20401;-70
2023/03/28 06:49:54;;;;;;;;;;;9.00;99.90;;;;;;5071621;28;20407;-70
2023/03/28 06:52:35;;;;;;;;;;;9.30;99.90;;;;;;5056323;28;19912;-70
2023/03/28 06:55:04;;;;;;;;;;;8.50;99.90;;;;;;5055728;28;19908;-71
2023/03/28 06:57:30;;;;;;;;;;;8.50;99.90;;;;;;5056226;28;19912;-71
2023/03/28 07:00:08;;;;;;;;;;;8.20;99.90;;;;;;5053137;28;19966;-71
2023/03/28 07:02:53;;;;;;;;;;;8.90;99.90;;;;;;5066898;28;19943;-70
2023/03/28 07:05:26;;;;;;;;;;;9.50;99.90;;;;;;5054643;28;20350;-70
2023/03/28 07:07:53;;;;;;;;;;;9.50;99.90;;;;;;5056712;28;19912;-71
2023/03/28 07:10:20;;;;;;;;;;;9.60;99.90;;;;;;5053037;28;20437;-71
2023/03/28 07:12:46;;;;;;;;;;;9.90;99.90;;;;;;5055933;28;19970;-70
2023/03/28 07:15:12;;;;;;;;;;;10.20;99.90;;;;;;5056897;28;19961;-70
2023/03/28 07:17:38;;;;;;;;;;;10.40;99.90;;;;;;5055598;28;19983;-71
2023/03/28 07:20:04;;;;;;;;;;;10.60;99.90;;;;;;5056678;28;19943;-71
2023/03/28 07:22:31;;;;;;;;;;;10.60;99.90;;;;;;5056274;28;19912;-71
2023/03/28 07:24:56;;;;;;;;;;;10.80;99.90;;;;;;5073462;28;19962;-71
2023/03/28 07:27:23;;;;;;;;;;;11.20;99.90;;;;;;5056185;28;20309;-71
2023/03/28 07:29:50;;;;;;;;;;;11.40;99.90;;;;;;5056103;28;20122;-70
2023/03/28 07:32:16;;;;;;;;;;;11.40;99.90;;;;;;5049403;28;19915;-71
2023/03/28 07:34:44;;;;;;;;;;;11.50;99.90;;;;;;5069587;28;19954;-71
2023/03/28 07:37:16;;;;;;;;;;;11.40;99.90;;;;;;5056368;28;19958;-71
2023/03/28 07:40:05;;;;;;;;;;;11.50;99.90;;;;;;5053300;28;19930;-71
2023/03/28 07:42:30;;;;;;;;;;;11.60;99.90;;;;;;5055707;28;19916;-71
2023/03/28 07:44:56;;;;;;;;;;;11.70;99.90;;;;;;5074056;28;19908;-71
2023/03/28 07:47:22;;;;;;;;;;;11.50;99.90;;;;;;5074962;28;19915;-72
2023/03/28 07:49:48;;;;;;;;;;;11.40;99.90;;;;;;5056483;28;19924;-71
2023/03/28 07:52:14;;;;;;;;;;;11.30;99.90;;;;;;5055793;28;19919;-72
2023/03/28 07:54:40;;;;;;;;;;;11.70;99.90;;;;;;5059743;28;20370;-72
2023/03/28 07:57:06;;;;;;;;;;;11.70;99.90;;;;;;5060109;28;19908;-71
2023/03/28 08:00:14;;;;;;;;;;;11.80;99.90;;;;;;5033145;28;19944;-72
2023/03/28 08:02:43;;;;;;;;;;;11.30;99.90;;;;;;5059773;28;19931;-72
2023/03/28 08:05:09;;;;;;;;;;;11.40;99.90;;;;;;5059052;28;19912;-72
2023/03/28 08:07:35;;;;;;;;;;;11.00;99.90;;;;;;5077950;28;19943;-72
2023/03/28 08:10:01;;;;;;;;;;;10.90;99.90;;;;;;5059388;28;19951;-72
2023/03/28 08:12:28;;;;;;;;;;;10.90;99.90;;;;;;5076261;28;19916;-73
2023/03/28 08:14:54;;;;;;;;;;;10.50;99.90;;;;;;5060234;28;19909;-72
2023/03/28 08:17:22;;;;;;;;;;;11.30;99.90;;;;;;5060470;28;19995;-72
2023/03/28 08:19:49;;;;;;;;;;;11.70;99.90;;;;;;5060102;28;19995;-73
2023/03/28 08:22:27;;;;;;;;;;;11.90;99.90;;;;;;5061468;28;20062;-72
2023/03/28 08:25:05;;;;;;;;;;;11.40;99.90;;;;;;5056571;28;19909;-73
2023/03/28 08:27:31;;;;;;;;;;;11.70;99.90;;;;;;5056066;28;19912;-72
2023/03/28 08:30:03;;;;;;;;;;;12.00;99.90;;;;;;5056222;28;19952;-73
2023/03/28 08:32:32;;;;;;;;;;;12.20;99.90;;;;;;5056262;28;19909;-76
2023/03/28 08:35:01;;;;;;;;;;;11.80;99.90;;;;;;5057169;28;19954;-76
2023/03/28 08:37:30;;;;;;;;;;;12.00;99.90;;;;;;5055816;28;20324;-74
2023/03/28 08:39:59;;;;;;;;;;;12.40;99.90;;;;;;5056119;28;19913;-74
2023/03/28 08:42:51;;;;;;;;;;;12.50;99.90;;;;;;5055667;28;19912;-74
2023/03/28 08:45:36;;;;;;;;;;;12.80;99.90;;;;;;5056164;28;19909;-74
2023/03/28 08:48:11;;;;;;;;;;;13.40;99.90;;;;;;5055963;28;20370;-75
2023/03/28 08:50:40;;;;;;;;;;;12.10;99.90;;;;;;5055670;28;19956;-76
2023/03/28 08:53:13;;;;;;;;;;;12.50;99.90;;;;;;5055878;28;19905;-76
2023/03/28 08:55:41;;;;;;;;;;;13.00;99.90;;;;;;5057050;28;19912;-76
2023/03/28 08:58:13;;;;;;;;;;;13.10;99.90;;;;;;5057190;28;19962;-75
2023/03/28 09:00:39;;;;;;;;;;;13.30;99.90;;;;;;5056933;28;20292;-76
2023/03/28 09:03:10;;;;;;;;;;;12.50;99.90;;;;;;5055202;28;20027;-76
2023/03/28 09:05:42;;;;;;;;;;;13.20;99.90;;;;;;5069354;28;19908;-77
2023/03/28 09:08:17;;;;;;;;;;;12.90;99.90;;;;;;5058826;28;20434;-76
2023/03/28 09:10:56;;;;;;;;;;;13.00;99.90;;;;;;5058522;28;19995;-75
2023/03/28 09:13:41;;;;;;;;;;;13.30;99.90;;;;;;5058580;28;19919;-77
2023/03/28 09:16:30;;;;;;;;;;;12.40;99.90;;;;;;5058816;28;19909;-77
2023/03/28 09:19:14;;;;;;;;;;;11.20;99.90;;;;;;5055220;28;20234;-79
2023/03/28 09:21:57;;;;;;;;;;;11.30;99.90;;;;;;5058779;28;19915;-77
2023/03/28 09:24:35;;;;;;;;;;;12.20;99.90;;;;;;5058610;28;19908;-78
2023/03/28 09:27:28;;;;;;;;;;;12.00;99.90;;;;;;5058496;28;20487;-79
2023/03/28 09:30:15;;;;;;;;;;;11.80;99.90;;;;;;5058545;28;19939;-79
2023/03/28 09:32:41;;;;;;;;;;;11.80;99.90;;;;;;5076054;28;19919;-80
2023/03/28 09:35:14;;;;;;;;;;;10.60;99.90;;;;;;5076517;28;19962;-80
2023/03/28 09:37:41;;;;;;;;;;;10.70;99.90;;;;;;5076428;28;19912;-79
2023/03/28 09:40:22;;;;;;;;;;;10.40;99.90;;;;;;5058437;28;19911;-81
2023/03/28 09:43:26;;;;;;;;;;;9.90;99.90;;;;;;5033731;28;19909;-80
2023/03/28 09:46:33;;;;;;;;;;;9.80;99.90;;;;;;4974885;28;19914;-80
2023/03/28 09:49:19;;;;;;;;;;;10.80;99.90;;;;;;4974741;28;20013;-80
2023/03/28 09:51:53;;;;;;;;;;;10.90;99.90;;;;;;4958897;28;19965;-81
2023/03/28 09:54:27;;;;;;;;;;;10.30;99.90;;;;;;4974414;28;20104;-81
2023/03/28 09:56:57;;;;;;;;;;;9.90;99.90;;;;;;4974577;28;19917;-82
2023/03/28 09:59:35;;;;;;;;;;;10.00;99.90;;;;;;4974904;28;19910;-82
2023/03/28 10:02:29;;;;;;;;;;;9.60;99.90;;;;;;4974412;28;20387;-82
2023/03/28 10:04:58;;;;;;;;;;;9.50;99.90;;;;;;4974894;28;19910;-82
2023/03/28 10:07:27;;;;;;;;;;;9.40;99.90;;;;;;4974328;28;19961;-81
2023/03/28 10:09:57;;;;;;;;;;;9.60;99.90;;;;;;4974264;28;20008;-81
2023/03/28 10:12:31;;;;;;;;;;;9.90;99.90;;;;;;4974198;28;19953;-81
2023/03/28 10:14:57;;;;;;;;;;;10.00;99.90;;;;;;4988798;28;19957;-80
2023/03/28 10:17:49;;;;;;;;;;;10.60;99.90;;;;;;5008759;28;20282;-80
2023/03/28 10:20:20;;;;;;;;;;;10.80;99.90;;;;;;5053245;28;19951;-79
2023/03/28 10:22:51;;;;;;;;;;;11.30;99.90;;;;;;5057299;28;20276;-79
2023/03/28 10:25:20;;;;;;;;;;;11.60;99.90;;;;;;5056734;28;20011;-78
2023/03/28 10:27:48;;;;;;;;;;;11.80;99.90;;;;;;5057390;28;19938;-78
2023/03/28 10:30:26;;;;;;;;;;;11.80;99.90;;;;;;5053188;28;19958;-78
2023/03/28 10:33:07;;;;;;;;;;;12.60;99.90;;;;;;5056084;28;19981;-78
2023/03/28 10:35:56;;;;;;;;;;;12.10;99.90;;;;;;5050009;28;19916;-78
2023/03/28 10:38:23;;;;;;;;;;;12.90;99.90;;;;;;5063291;28;19975;-78
2023/03/28 10:41:10;;;;;;;;;;;12.90;99.90;;;;;;5073027;28;20007;-78
2023/03/28 10:43:48;;;;;;;;;;;12.80;99.90;;;;;;5073572;28;19984;-78
2023/03/28 10:46:39;;;;;;;;;;;13.00;99.90;;;;;;5074485;28;20247;-77
2023/03/28 10:49:22;;;;;;;;;;;13.40;99.90;;;;;;5056593;28;20293;-77
2023/03/28 10:52:07;;;;;;;;;;;14.40;99.90;;;;;;5050677;28;19959;-77
2023/03/28 10:54:40;;;;;;;;;;;14.70;99.90;;;;;;5070764;28;20354;-78
2023/03/28 10:57:17;;;;;;;;;;;14.40;99.90;;;;;;5056649;28;19987;-79
2023/03/28 10:59:51;;;;;;;;;;;14.00;99.90;;;;;;5056537;28;19927;-80
2023/03/28 11:02:17;;;;;;;;;;;13.50;99.90;;;;;;5056964;28;19963;-79
2023/03/28 11:05:02;;;;;;;;;;;14.10;99.90;;;;;;5056573;28;19905;-79
2023/03/28 11:07:48;;;;;;;;;;;14.20;99.90;;;;;;5074795;28;19913;-79
2023/03/28 11:10:49;;;;;;;;;;;14.10;99.90;;;;;;5056632;28;19916;-80
2023/03/28 11:13:39;;;;;;;;;;;13.50;99.90;;;;;;5074505;28;19927;-81
2023/03/28 11:16:12;;;;;;;;;;;12.90;99.90;;;;;;5056635;28;19915;-81
2023/03/28 11:19:11;;;;;;;;;;;12.60;99.90;;;;;;5057760;28;19915;-82
2023/03/28 11:21:54;;;;;;;;;;;12.20;99.90;;;;;;5058485;28;19972;-82
2023/03/28 11:24:34;;;;;;;;;;;12.00;99.90;;;;;;5058516;28;20361;-83
2023/03/28 11:27:38;;;;;;;;;;;11.70;99.90;;;;;;5059594;28;19908;-83
2023/03/28 11:30:31;;;;;;;;;;;12.20;99.90;;;;;;5062413;28;19912;-82
2023/03/28 11:33:20;;;;;;;;;;;12.30;99.90;;;;;;5079225;28;20373;-81
2023/03/28 11:36:00;;;;;;;;;;;12.70;99.90;;;;;;5062331;28;19915;-84
2023/03/28 11:38:37;;;;;;;;;;;13.10;99.90;;;;;;5062954;28;20282;-84
2023/03/28 11:41:09;;;;;;;;;;;13.00;99.90;;;;;;5080798;28;19931;-84
2023/03/28 11:44:07;;;;;;;;;;;12.50;99.90;;;;;;5078367;28;20308;-85
2023/03/28 11:46:39;;;;;;;;;;;12.30;99.90;;;;;;5062612;28;19908;-85
2023/03/28 11:49:12;;;;;;;;;;;12.00;99.90;;;;;;5062811;28;20030;-85
2023/03/28 11:51:45;;;;;;;;;;;11.60;99.90;;;;;;5078745;28;19912;-85
2023/03/28 11:54:16;;;;;;;;;;;11.20;99.90;;;;;;5062086;28;19909;-85
2023/03/28 11:57:15;;;;;;;;;;;10.90;99.90;;;;;;5062657;28;19909;-85
2023/03/28 11:59:59;;;;;;;;;;;11.00;99.90;;;;;;5043389;28;20289;-83
2023/03/28 12:02:36;;;;;;;;;;;11.10;99.90;;;;;;5061927;28;19919;-84
2023/03/28 12:05:09;;;;;;;;;;;11.50;99.90;;;;;;5062343;28;19915;-84
2023/03/28 12:07:42;;;;;;;;;;;12.10;99.90;;;;;;5080383;28;19916;-84
2023/03/28 12:10:28;;;;;;;;;;;12.20;99.90;;;;;;5077833;28;19975;-85
2023/03/28 12:13:00;;;;;;;;;;;11.90;99.90;;;;;;5060348;28;20270;-83
2023/03/28 12:15:32;;;;;;;;;;;11.30;99.90;;;;;;5061728;28;20273;-84
2023/03/28 12:18:36;;;;;;;;;;;11.40;99.90;;;;;;5060790;28;19997;-81
2023/03/28 12:21:09;;;;;;;;;;;11.80;99.90;;;;;;5043967;28;20255;-78
2023/03/28 12:23:46;;;;;;;;;;;12.00;99.90;;;;;;5078956;28;19919;-81
2023/03/28 12:26:36;;;;;;;;;;;12.30;99.90;;;;;;5061004;28;19908;-81
2023/03/28 12:29:16;;;;;;;;;;;11.90;99.90;;;;;;5060718;28;20063;-82
2023/03/28 12:31:56;;;;;;;;;;;11.70;99.90;;;;;;5059929;28;19951;-82
2023/03/28 12:34:34;;;;;;;;;;;11.50;99.90;;;;;;5039890;28;19913;-82
2023/03/28 12:37:32;;;;;;;;;;;11.30;99.90;;;;;;5058757;28;19912;-81
2023/03/28 12:40:22;;;;;;;;;;;11.80;99.90;;;;;;5037651;28;19931;-80
2023/03/28 12:42:57;;;;;;;;;;;12.80;99.90;;;;;;5039606;28;19915;-80
2023/03/28 12:45:32;;;;;;;;;;;12.70;99.90;;;;;;5058289;28;19936;-79
2023/03/28 12:48:24;;;;;;;;;;;13.30;99.90;;;;;;5040269;28;19919;-79
2023/03/28 12:50:59;;;;;;;;;;;13.30;99.90;;;;;;5039085;28;19935;-80
2023/03/28 12:53:36;;;;;;;;;;;13.80;99.90;;;;;;5057307;28;19919;-80
2023/03/28 12:56:02;;;;;;;;;;;13.10;99.90;;;;;;5039647;28;19908;-81
2023/03/28 12:58:33;;;;;;;;;;;12.30;99.90;;;;;;5039342;28;20339;-82
2023/03/28 13:01:12;;;;;;;;;;;12.10;99.90;;;;;;5057812;28;19916;-82
2023/03/28 13:04:13;;;;;;;;;;;11.90;99.90;;;;;;5054461;28;20007;-82
2023/03/28 13:07:08;;;;;;;;;;;11.80;99.90;;;;;;5056640;28;19909;-82
2023/03/28 13:09:46;;;;;;;;;;;11.90;99.90;;;;;;5057531;28;19955;-82
2023/03/28 13:12:30;;;;;;;;;;;12.40;99.90;;;;;;5057138;28;19928;-81
2023/03/28 13:15:01;;;;;;;;;;;12.90;99.90;;;;;;5057172;28;19927;-79
2023/03/28 13:17:31;;;;;;;;;;;12.70;99.90;;;;;;5057369;28;19913;-82
2023/03/28 13:20:09;;;;;;;;;;;12.20;99.90;;;;;;5057216;28;20011;-82
2023/03/28 13:22:52;;;;;;;;;;;11.80;99.90;;;;;;5057534;28;19908;-82
2023/03/28 13:25:19;;;;;;;;;;;11.40;99.90;;;;;;5057480;28;19908;-83
2023/03/28 13:27:49;;;;;;;;;;;11.20;99.90;;;;;;5057663;28;19958;-83
2023/03/28 13:30:16;;;;;;;;;;;10.40;99.90;;;;;;5057538;28;20320;-83
2023/03/28 13:32:47;;;;;;;;;;;10.20;99.90;;;;;;5057435;28;19908;-83
2023/03/28 13:35:31;;;;;;;;;;;10.70;99.90;;;;;;5057036;28;20016;-83
2023/03/28 13:38:11;;;;;;;;;;;11.10;99.90;;;;;;5056807;28;19908;-82
2023/03/28 13:40:49;;;;;;;;;;;11.50;99.90;;;;;;5056897;28;20004;-83
2023/03/28 13:43:21;;;;;;;;;;;11.60;99.90;;;;;;5056547;28;19912;-83
2023/03/28 13:45:48;;;;;;;;;;;10.80;99.90;;;;;;5057200;28;19944;-83
2023/03/28 13:48:14;;;;;;;;;;;10.90;99.90;;;;;;5056988;28;19908;-83
2023/03/28 13:50:41;;;;;;;;;;;11.00;99.90;;;;;;5057141;28;19971;-83
2023/03/28 13:53:06;;;;;;;;;;;10.90;99.90;;;;;;5057434;28;19909;-83
2023/03/28 13:55:32;;;;;;;;;;;11.00;99.90;;;;;;5058370;28;19954;-83
2023/03/28 13:57:59;;;;;;;;;;;10.40;99.90;;;;;;5059679;28;20262;-84
2023/03/28 14:00:26;;;;;;;;;;;10.00;99.90;;;;;;5059660;28;19913;-84
2023/03/28 14:02:53;;;;;;;;;;;9.60;99.90;;;;;;5059497;28;19909;-83
2023/03/28 14:05:23;;;;;;;;;;;9.40;99.90;;;;;;5068083;28;19927;-84
2023/03/28 14:07:50;;;;;;;;;;;8.70;99.90;;;;;;5076276;28;19908;-85
2023/03/28 14:10:30;;;;;;;;;;;8.50;99.90;;;;;;5075935;28;19917;-84
2023/03/28 14:12:57;;;;;;;;;;;8.00;99.90;;;;;;5069502;28;19923;-84
2023/03/28 14:15:24;;;;;;;;;;;8.30;99.90;;;;;;5049458;28;19940;-84
2023/03/28 14:17:50;;;;;;;;;;;8.80;99.90;;;;;;5044596;28;19919;-83
2023/03/28 14:20:17;;;;;;;;;;;9.20;99.90;;;;;;5051225;28;20346;-86
2023/03/28 14:22:46;;;;;;;;;;;9.40;99.90;;;;;;5043359;28;19917;-84
2023/03/28 14:25:13;;;;;;;;;;;9.80;99.90;;;;;;5054681;28;19908;-83
2023/03/28 14:27:40;;;;;;;;;;;10.20;99.90;;;;;;5057330;28;20341;-84
2023/03/28 14:30:17;;;;;;;;;;;10.50;99.90;;;;;;5090436;28;19959;-84
2023/03/28 14:32:58;;;;;;;;;;;10.60;99.90;;;;;;5086992;28;20238;-84
2023/03/28 14:35:31;;;;;;;;;;;10.50;99.90;;;;;;5073662;28;19912;-84
2023/03/28 14:38:02;;;;;;;;;;;10.20;99.90;;;;;;5080327;28;20436;-83
2023/03/28 14:40:32;;;;;;;;;;;9.70;99.90;;;;;;5088204;28;20002;-83
2023/03/28 14:43:00;;;;;;;;;;;9.50;99.90;;;;;;5075824;28;19912;-84
2023/03/28 14:45:30;;;;;;;;;;;9.40;99.90;;;;;;5062142;28;19924;-83
2023/03/28 14:47:56;;;;;;;;;;;9.40;99.90;;;;;;5081666;28;19911;-83
2023/03/28 14:50:24;;;;;;;;;;;9.00;99.90;;;;;;5069179;28;19924;-83
2023/03/28 14:52:50;;;;;;;;;;;8.30;99.90;;;;;;5086601;28;20317;-83
2023/03/28 14:55:20;;;;;;;;;;;8.10;99.90;;;;;;5070492;28;19912;-83
2023/03/28 14:57:47;;;;;;;;;;;7.90;99.90;;;;;;5063601;28;20018;-83
2023/03/28 15:00:14;;;;;;;;;;;8.00;99.90;;;;;;5072796;28;19959;-83
2023/03/28 15:02:41;;;;;;;;;;;8.10;99.90;;;;;;5085823;28;19916;-83
2023/03/28 15:05:12;;;;;;;;;;;8.10;99.90;;;;;;5077054;28;19920;-83
2023/03/28 15:07:38;;;;;;;;;;;8.10;99.90;;;;;;5063851;28;19924;-83
2023/03/28 15:10:06;;;;;;;;;;;8.20;99.90;;;;;;5044115;28;19924;-81
2023/03/28 15:12:35;;;;;;;;;;;8.30;99.90;;;;;;5040206;28;19924;-82
2023/03/28 15:15:02;;;;;;;;;;;8.40;99.90;;;;;;5058393;28;20441;-82
2023/03/28 15:17:30;;;;;;;;;;;8.50;99.90;;;;;;5073103;28;19915;-82
2023/03/28 15:19:58;;;;;;;;;;;8.40;99.90;;;;;;5059156;28;20011;-83
2023/03/28 15:22:28;;;;;;;;;;;8.60;99.90;;;;;;5061062;28;19926;-82
2023/03/28 15:24:55;;;;;;;;;;;8.60;99.90;;;;;;5060510;28;20365;-83
2023/03/28 15:27:27;;;;;;;;;;;8.50;99.90;;;;;;5059553;28;19919;-82
2023/03/28 15:29:53;;;;;;;;;;;8.60;99.90;;;;;;5060115;28;20374;-82
2023/03/28 15:32:19;;;;;;;;;;;8.50;99.90;;;;;;5053180;28;21017;-83
2023/03/28 15:35:03;;;;;;;;;;;8.60;99.90;;;;;;5025935;28;22273;-83
2023/03/28 15:37:38;;;;;;;;;;;8.50;99.90;;;;;;5051269;28;22874;-83
2023/03/28 15:40:17;;;;;;;;;;;8.70;99.90;;;;;;5034738;28;23929;-83
2023/03/28 15:42:48;;;;;;;;;;;8.60;99.90;;;;;;5054055;28;24533;-83
2023/03/28 15:45:22;;;;;;;;;;;8.60;99.90;;;;;;5056544;28;26177;-83
2023/03/28 15:47:52;;;;;;;;;;;8.50;99.90;;;;;;5008235;28;27466;-83
2023/03/28 15:50:25;;;;;;;;;;;8.40;99.90;;;;;;4994116;28;25418;-83
2023/03/28 15:53:01;;;;;;;;;;;8.20;99.90;;;;;;5025165;28;28666;-83
2023/03/28 15:55:27;;;;;;;;;;;8.10;99.90;;;;;;5047968;28;28259;-82
2023/03/28 15:57:54;;;;;;;;;;;8.00;99.90;;;;;;5058655;28;31180;-70
2023/03/28 16:00:40;;;;;;;;;;;8.00;99.90;;;;;;5046460;28;33111;-83
2023/03/28 16:03:23;;;;;;;;;;;8.00;99.90;;;;;;5025378;28;24857;-83
2023/03/28 16:05:52;;;;;;;;;;;8.10;99.90;;;;;;4998389;28;34117;-83
2023/03/28 16:08:22;;;;;;;;;;;7.90;99.90;;;;;;5029212;28;24823;-83
2023/03/28 16:10:48;;;;;;;;;;;8.00;99.90;;;;;;5039424;28;34879;-83
2023/03/28 16:13:33;;;;;;;;;;;8.10;99.90;;;;;;5008928;28;35519;-84
2023/03/28 16:16:22;;;;;;;;;;;8.10;99.90;;;;;;4988723;28;37332;-83
2023/03/28 16:19:00;;;;;;;;;;;8.00;99.90;;;;;;4973044;28;39141;-83
2023/03/28 16:21:26;;;;;;;;;;;8.00;99.90;;;;;;4996596;28;39934;-83
2023/03/28 16:23:52;;;;;;;;;;;8.00;99.90;;;;;;5061279;28;40523;-83
2023/03/28 16:26:18;;;;;;;;;;;8.00;99.90;;;;;;5070761;28;41530;-83
2023/03/28 16:28:44;;;;;;;;;;;7.70;99.90;;;;;;5035837;28;43505;-83
2023/03/28 16:31:14;;;;;;;;;;;7.60;99.90;;;;;;5036285;28;25877;-83
2023/03/28 16:33:40;;;;;;;;;;;7.30;99.90;;;;;;5051635;28;46471;-83
2023/03/28 16:36:06;;;;;;;;;;;7.10;99.90;;;;;;5063604;28;46202;-83
2023/03/28 16:38:32;;;;;;;;;;;7.00;99.90;;;;;;5045427;28;47804;-83
2023/03/28 16:40:58;;;;;;;;;;;7.00;99.90;;;;;;5040060;28;49410;-82
2023/03/28 16:43:23;;;;;;;;;;;6.80;99.90;;;;;;5040288;28;49063;-83
2023/03/28 16:45:49;;;;;;;;;;;6.60;99.90;;;;;;5030549;28;49531;-83
2023/03/28 16:48:15;;;;;;;;;;;6.40;99.90;;;;;;5024495;28;54720;-83
2023/03/28 16:53:23;;;;;;;;;;;6.50;99.90;;;;;;5092164;28;20377;-84
2023/03/28 16:55:50;;;;;;;;;;;6.30;99.90;;;;;;5092628;28;20003;-83
2023/03/28 16:58:16;;;;;;;;;;;6.20;99.90;;;;;;5092444;28;19909;-83
2023/03/28 17:00:45;;;;;;;;;;;6.00;99.90;;;;;;5108108;28;19966;-83
2023/03/28 17:03:10;;;;;;;;;;;5.90;99.90;;;;;;5092459;28;19916;-83
2023/03/28 17:05:36;;;;;;;;;;;5.90;99.90;;;;;;5092407;28;20281;-82
2023/03/28 17:08:02;;;;;;;;;;;6.00;99.90;;;;;;5092214;28;19913;-83
2023/03/28 17:10:28;;;;;;;;;;;5.80;99.90;;;;;;5092076;28;19920;-83
2023/03/28 17:12:54;;;;;;;;;;;5.70;99.90;;;;;;5092289;28;19965;-83